Time;durP1;ratioP1;P1;durP2;ratioP2;P2;SDS_P1;SDS_P2;PMS_P1;PMS_P2;Temp;Humidity;BMP_temperature;BMP_pressure;BME280_temperature;BME280_humidity;BME280_pressure;Samples;Min_cycle;Max_cycle;Signal;HPM_P1;HPM_P2
2021/09/10 00:03:46;;;;;;;7.07;5.00;;;21.50;75.30;;;;;;10066402;28;20608;-57
2021/09/10 00:08:37;;;;;;;7.55;5.28;;;21.60;75.40;;;;;;10082120;28;20420;-59
2021/09/10 00:13:27;;;;;;;7.40;4.60;;;21.50;75.60;;;;;;10078660;28;20030;-58
2021/09/10 00:18:18;;;;;;;7.20;4.90;;;21.40;75.70;;;;;;10085751;28;20060;-59
2021/09/10 00:23:09;;;;;;;6.15;4.35;;;21.50;75.70;;;;;;10057926;28;20029;-59
2021/09/10 00:27:59;;;;;;;6.82;4.40;;;21.50;75.60;;;;;;10078798;28;21164;-56
2021/09/10 00:32:50;;;;;;;8.00;4.75;;;21.50;75.60;;;;;;10080761;28;20036;-55
2021/09/10 00:37:41;;;;;;;7.88;5.20;;;21.50;75.60;;;;;;10074839;28;20033;-57
2021/09/10 00:42:31;;;;;;;6.75;4.93;;;21.50;75.50;;;;;;10078904;28;20147;-58
2021/09/10 00:47:23;;;;;;;5.20;4.20;;;21.50;75.60;;;;;;10074893;28;20495;-59
2021/09/10 00:52:14;;;;;;;7.03;4.78;;;21.40;75.60;;;;;;10081842;28;20410;-58
2021/09/10 00:57:05;;;;;;;5.78;4.95;;;21.50;75.70;;;;;;10057654;28;20033;-58
2021/09/10 01:01:55;;;;;;;6.72;4.72;;;21.40;75.70;;;;;;10074587;28;20033;-58
2021/09/10 01:06:47;;;;;;;9.07;6.38;;;21.40;75.80;;;;;;10082806;28;20025;-59
2021/09/10 01:11:38;;;;;;;6.32;5.00;;;21.50;75.80;;;;;;10068768;28;20043;-59
2021/09/10 01:16:29;;;;;;;7.07;4.45;;;21.50;75.80;;;;;;10071776;28;20387;-59
2021/09/10 01:21:20;;;;;;;5.75;4.63;;;21.50;75.70;;;;;;10056038;28;20595;-59
2021/09/10 01:26:11;;;;;;;6.95;4.32;;;21.50;75.90;;;;;;10073287;28;20263;-58
2021/09/10 01:31:01;;;;;;;6.75;4.45;;;21.40;75.80;;;;;;10080635;28;20446;-55
2021/09/10 01:35:52;;;;;;;8.43;4.28;;;21.40;75.80;;;;;;10079562;28;20075;-57
2021/09/10 01:40:43;;;;;;;6.93;4.65;;;21.50;75.70;;;;;;10088695;28;20456;-57
2021/09/10 01:45:34;;;;;;;6.70;4.82;;;21.50;75.70;;;;;;10074676;28;20028;-58
2021/09/10 01:50:25;;;;;;;4.88;4.38;;;21.50;75.50;;;;;;10071878;28;20123;-55
2021/09/10 01:55:16;;;;;;;7.18;4.32;;;21.50;75.50;;;;;;10080595;28;20033;-58
2021/09/10 02:00:07;;;;;;;5.38;4.13;;;21.50;75.40;;;;;;10081603;28;20040;-57
2021/09/10 02:04:57;;;;;;;9.15;4.90;;;21.40;75.40;;;;;;10069949;28;20140;-58
2021/09/10 02:09:49;;;;;;;5.28;4.10;;;21.40;75.30;;;;;;10074184;28;20043;-59
2021/09/10 02:14:39;;;;;;;5.28;4.13;;;21.40;75.20;;;;;;10079328;28;20040;-56
2021/09/10 02:19:31;;;;;;;5.15;3.90;;;21.30;75.20;;;;;;10070628;28;20045;-58
2021/09/10 02:24:21;;;;;;;7.00;4.72;;;21.20;75.20;;;;;;10074912;28;20041;-56
2021/09/10 02:29:13;;;;;;;6.18;4.13;;;21.20;75.20;;;;;;10078204;28;20108;-58
2021/09/10 02:34:04;;;;;;;7.55;4.88;;;21.10;75.20;;;;;;10071034;28;20112;-56
2021/09/10 02:38:55;;;;;;;6.63;5.35;;;20.90;75.50;;;;;;10072650;28;20381;-57
2021/09/10 02:43:45;;;;;;;7.15;5.10;;;20.90;75.60;;;;;;10078684;28;20057;-57
2021/09/10 02:48:36;;;;;;;7.57;4.47;;;20.80;75.60;;;;;;10075462;28;20037;-58
2021/09/10 02:53:27;;;;;;;5.85;5.10;;;20.80;75.60;;;;;;10081251;28;20120;-58
2021/09/10 02:58:18;;;;;;;7.40;4.78;;;20.70;75.90;;;;;;10081744;28;20045;-58
2021/09/10 03:03:09;;;;;;;6.35;4.85;;;20.60;76.30;;;;;;10075740;28;20109;-65
2021/09/10 03:08:00;;;;;;;6.43;4.50;;;20.60;76.30;;;;;;10084538;28;20068;-58
2021/09/10 03:12:50;;;;;;;7.90;4.95;;;20.60;76.50;;;;;;10073543;28;20032;-57
2021/09/10 03:17:41;;;;;;;4.97;4.00;;;20.50;76.80;;;;;;10079525;28;20382;-57
2021/09/10 03:22:32;;;;;;;5.10;4.15;;;20.40;76.70;;;;;;10075591;28;20079;-58
2021/09/10 03:27:23;;;;;;;6.40;4.93;;;20.40;76.90;;;;;;10069032;28;20029;-58
2021/09/10 03:32:14;;;;;;;5.80;4.43;;;20.40;77.00;;;;;;10077950;28;20036;-57
2021/09/10 03:37:05;;;;;;;6.00;4.82;;;20.40;77.20;;;;;;10076878;28;20021;-57
2021/09/10 03:41:56;;;;;;;7.10;4.55;;;20.30;77.20;;;;;;10073327;28;20064;-57
2021/09/10 03:46:46;;;;;;;6.10;4.35;;;20.30;77.40;;;;;;10062056;28;20394;-59
2021/09/10 03:51:37;;;;;;;7.50;5.03;;;20.30;77.30;;;;;;10074890;28;20032;-57
2021/09/10 03:56:28;;;;;;;7.28;5.38;;;20.40;77.40;;;;;;10083989;28;20037;-59
2021/09/10 04:01:18;;;;;;;6.57;4.22;;;20.40;77.50;;;;;;10079579;28;20511;-58
2021/09/10 04:06:10;;;;;;;5.80;3.90;;;20.40;77.50;;;;;;10083635;28;20024;-59
2021/09/10 04:11:01;;;;;;;5.80;4.28;;;20.40;77.60;;;;;;10079167;28;20033;-59
2021/09/10 04:15:52;;;;;;;7.05;4.05;;;20.40;77.70;;;;;;10076572;28;20159;-57
2021/09/10 04:20:42;;;;;;;8.80;5.28;;;20.40;77.60;;;;;;10077258;28;20040;-58
2021/09/10 04:25:33;;;;;;;6.53;4.38;;;20.60;77.30;;;;;;10082688;28;20299;-55
2021/09/10 04:30:24;;;;;;;6.07;4.57;;;20.50;77.30;;;;;;10079045;28;20056;-58
2021/09/10 04:35:14;;;;;;;6.40;4.50;;;20.40;77.50;;;;;;10090261;28;20063;-59
2021/09/10 04:40:06;;;;;;;7.05;4.32;;;20.50;77.60;;;;;;10083923;28;20117;-58
2021/09/10 04:44:57;;;;;;;5.25;3.85;;;20.40;77.80;;;;;;10081894;28;20152;-58
2021/09/10 04:49:48;;;;;;;6.93;5.28;;;20.40;77.90;;;;;;10077489;28;20033;-58
2021/09/10 04:54:38;;;;;;;9.52;5.30;;;20.30;77.90;;;;;;10081609;28;20048;-57
2021/09/10 04:59:29;;;;;;;7.40;4.63;;;20.30;78.00;;;;;;10080916;28;20267;-57
2021/09/10 05:04:22;;;;;;;8.57;4.80;;;20.20;78.20;;;;;;10077084;28;20633;-59
2021/09/10 05:09:13;;;;;;;6.50;5.28;;;20.20;78.40;;;;;;10075041;28;20013;-59
2021/09/10 05:14:03;;;;;;;6.38;4.28;;;20.20;78.20;;;;;;10082472;28;20041;-59
2021/09/10 05:18:54;;;;;;;7.00;4.53;;;20.20;78.40;;;;;;10078985;28;20044;-58
2021/09/10 05:23:45;;;;;;;6.80;4.75;;;20.20;78.40;;;;;;10074460;28;20086;-56
2021/09/10 05:28:35;;;;;;;5.63;4.63;;;20.30;78.40;;;;;;10075195;28;20033;-57
2021/09/10 05:33:26;;;;;;;9.70;4.30;;;20.30;78.50;;;;;;10074228;28;20017;-61
2021/09/10 05:38:17;;;;;;;6.65;4.65;;;20.30;78.50;;;;;;10074963;28;20049;-58
2021/09/10 05:43:07;;;;;;;8.60;4.97;;;20.40;78.60;;;;;;10073621;28;20415;-57
2021/09/10 05:47:58;;;;;;;10.18;4.72;;;20.40;78.60;;;;;;10080978;28;20029;-56
2021/09/10 05:52:49;;;;;;;7.18;4.43;;;20.30;78.80;;;;;;10078657;28;20411;-59
2021/09/10 05:57:39;;;;;;;9.82;4.63;;;20.30;78.90;;;;;;10081757;28;20064;-59
2021/09/10 06:02:30;;;;;;;6.63;4.70;;;20.30;79.20;;;;;;10075299;28;20033;-57
2021/09/10 06:07:21;;;;;;;9.20;5.60;;;20.30;79.00;;;;;;10075309;28;20041;-59
2021/09/10 06:12:12;;;;;;;10.10;5.43;;;20.30;79.00;;;;;;10067382;28;20037;-58
2021/09/10 06:17:02;;;;;;;7.22;5.00;;;20.40;78.80;;;;;;10085617;28;20033;-58
2021/09/10 06:21:53;;;;;;;9.18;5.20;;;20.60;78.50;;;;;;10087631;28;20033;-58
2021/09/10 06:26:44;;;;;;;6.60;4.88;;;20.70;78.30;;;;;;10079933;28;20189;-57
2021/09/10 06:31:34;;;;;;;7.13;4.40;;;20.60;78.60;;;;;;10069829;28;20028;-57
2021/09/10 06:36:25;;;;;;;6.18;4.70;;;20.70;78.80;;;;;;10070850;28;20036;-57
2021/09/10 06:41:16;;;;;;;6.03;4.70;;;20.70;78.70;;;;;;10069199;28;20088;-58
2021/09/10 06:46:07;;;;;;;5.38;4.40;;;20.70;78.90;;;;;;10069454;28;20017;-57
2021/09/10 06:50:58;;;;;;;5.70;4.32;;;20.70;78.90;;;;;;10067984;28;20039;-54
2021/09/10 06:55:48;;;;;;;7.40;4.55;;;20.80;78.80;;;;;;10063794;28;20207;-58
2021/09/10 07:00:39;;;;;;;7.75;4.45;;;20.70;79.20;;;;;;10077906;28;20343;-59
2021/09/10 07:05:30;;;;;;;6.85;4.75;;;20.70;79.40;;;;;;10071236;28;20017;-55
2021/09/10 07:10:22;;;;;;;7.47;4.68;;;20.60;79.90;;;;;;10068010;28;20706;-57
2021/09/10 07:15:13;;;;;;;6.22;5.50;;;20.70;80.00;;;;;;10061828;28;20544;-53
2021/09/10 07:20:04;;;;;;;9.98;5.15;;;20.70;80.40;;;;;;10074392;28;20059;-55
2021/09/10 07:24:55;;;;;;;7.60;5.00;;;20.80;80.50;;;;;;10076300;28;20034;-56
2021/09/10 07:29:46;;;;;;;5.90;4.82;;;20.90;80.90;;;;;;10078509;28;20033;-56
2021/09/10 07:34:37;;;;;;;8.38;4.78;;;20.80;81.30;;;;;;10077006;28;20025;-56
2021/09/10 07:39:28;;;;;;;5.93;4.68;;;20.70;81.50;;;;;;10077735;28;20565;-54
2021/09/10 07:44:19;;;;;;;6.57;4.32;;;20.50;81.90;;;;;;10081991;28;20060;-51
2021/09/10 07:49:10;;;;;;;8.68;5.15;;;20.50;82.10;;;;;;10079617;28;20021;-56
2021/09/10 07:54:00;;;;;;;8.07;5.32;;;20.50;82.70;;;;;;10075407;28;20068;-53
2021/09/10 07:58:51;;;;;;;9.43;5.95;;;20.60;82.60;;;;;;10084764;28;20530;-54
2021/09/10 08:03:41;;;;;;;8.13;6.18;;;20.70;82.70;;;;;;10070477;28;20108;-53
2021/09/10 08:08:32;;;;;;;9.95;5.40;;;20.80;82.60;;;;;;10070149;28;20025;-54
2021/09/10 08:13:23;;;;;;;9.10;5.53;;;20.80;82.90;;;;;;10058927;28;20040;-54
2021/09/10 08:18:13;;;;;;;8.35;5.40;;;21.00;82.80;;;;;;10080046;28;20525;-54
2021/09/10 08:23:04;;;;;;;7.50;5.30;;;21.20;82.60;;;;;;10076219;28;20024;-53
2021/09/10 08:27:55;;;;;;;8.20;5.90;;;21.20;83.00;;;;;;10075131;28;20021;-57
2021/09/10 08:32:45;;;;;;;5.40;4.55;;;21.20;83.00;;;;;;10076815;28;20556;-54
2021/09/10 08:37:37;;;;;;;9.48;5.80;;;21.20;83.40;;;;;;10079527;28;20449;-53
2021/09/10 08:42:28;;;;;;;8.88;5.03;;;21.10;83.60;;;;;;10057693;28;20068;-53
2021/09/10 08:47:19;;;;;;;9.60;6.82;;;21.30;83.40;;;;;;10072656;28;20533;-54
2021/09/10 08:52:09;;;;;;;9.05;5.47;;;21.50;83.20;;;;;;10071199;28;20477;-50
2021/09/10 08:57:00;;;;;;;9.77;6.05;;;21.50;83.10;;;;;;10074468;28;20067;-55
2021/09/10 09:01:52;;;;;;;6.22;5.07;;;21.80;82.80;;;;;;10069064;28;20049;-56
2021/09/10 09:06:45;;;;;;;6.75;5.40;;;21.90;82.50;;;;;;10071194;28;20051;-53
2021/09/10 09:11:36;;;;;;;7.25;5.47;;;22.00;82.60;;;;;;10072906;28;20032;-53
2021/09/10 09:16:30;;;;;;;6.40;4.38;;;22.30;82.50;;;;;;10074481;28;20021;-50
2021/09/10 09:21:29;;;;;;;7.00;5.47;;;22.60;81.70;;;;;;10057143;28;20693;-54
2021/09/10 09:26:23;;;;;;;7.22;4.65;;;22.70;81.60;;;;;;10061625;28;20029;-55
2021/09/10 09:31:19;;;;;;;6.82;5.72;;;22.80;81.40;;;;;;10071561;28;20033;-52
2021/09/10 09:36:11;;;;;;;7.18;5.20;;;23.00;81.20;;;;;;10073636;28;20044;-58
2021/09/10 09:41:10;;;;;;;7.63;5.45;;;23.10;80.80;;;;;;10068739;28;20784;-52
2021/09/10 09:46:05;;;;;;;6.15;4.88;;;23.40;80.20;;;;;;10071604;28;20047;-55
2021/09/10 09:50:58;;;;;;;6.07;4.55;;;23.50;79.90;;;;;;10076162;28;20029;-58
2021/09/10 09:55:49;;;;;;;7.15;4.80;;;23.60;79.40;;;;;;10073832;28;20050;-51
2021/09/10 10:00:42;;;;;;;6.68;5.03;;;23.80;79.00;;;;;;10066831;28;20557;-55
2021/09/10 10:05:49;;;;;;;7.68;6.10;;;23.80;78.70;;;;;;10063609;28;20041;-54
2021/09/10 10:10:53;;;;;;;4.88;4.38;;;24.00;78.20;;;;;;10069126;28;20033;-57
2021/09/10 10:15:45;;;;;;;7.57;5.30;;;23.90;78.00;;;;;;10066957;28;20068;-58
2021/09/10 10:20:45;;;;;;;6.70;5.25;;;24.10;77.80;;;;;;10068986;28;20044;-54
2021/09/10 10:26:09;;;;;;;9.77;6.20;;;24.30;77.40;;;;;;10069372;28;20028;-57
2021/09/10 10:30:59;;;;;;;5.88;4.97;;;24.20;77.20;;;;;;10067792;28;20024;-57
2021/09/10 10:35:50;;;;;;;6.15;4.43;;;24.40;76.90;;;;;;10073106;28;20090;-58
2021/09/10 10:41:18;;;;;;;7.55;5.18;;;24.50;76.60;;;;;;10072979;28;20041;-54
2021/09/10 10:46:10;;;;;;;6.82;5.70;;;24.70;75.70;;;;;;10065259;28;20514;-56
2021/09/10 10:51:03;;;;;;;6.93;4.95;;;24.70;76.10;;;;;;10070398;28;20021;-57
2021/09/10 10:55:54;;;;;;;8.13;4.95;;;24.70;75.90;;;;;;10078314;28;20047;-59
2021/09/10 11:00:49;;;;;;;6.28;4.93;;;24.90;75.40;;;;;;10085608;28;20040;-49
2021/09/10 11:05:43;;;;;;;7.43;4.85;;;25.10;74.70;;;;;;10084870;28;20692;-57
2021/09/10 11:10:33;;;;;;;5.68;4.88;;;25.10;74.60;;;;;;10071138;28;20065;-58
2021/09/10 11:15:32;;;;;;;9.77;6.20;;;25.20;74.10;;;;;;10086673;28;20402;-59
2021/09/10 11:20:28;;;;;;;5.20;4.28;;;25.30;73.70;;;;;;10083756;28;22354;-57
2021/09/10 11:25:19;;;;;;;6.63;5.18;;;25.70;73.40;;;;;;10061663;28;20041;-54
2021/09/10 11:30:11;;;;;;;6.38;4.80;;;25.90;73.00;;;;;;10086479;28;20053;-55
2021/09/10 11:35:14;;;;;;;6.50;4.88;;;25.70;72.80;;;;;;10082978;28;20074;-55
2021/09/10 11:40:06;;;;;;;11.00;6.97;;;25.60;72.90;;;;;;10089893;28;20052;-51
2021/09/10 11:45:08;;;;;;;8.23;5.55;;;25.50;73.00;;;;;;10084003;28;20060;-50
2021/09/10 11:50:08;;;;;;;6.93;5.28;;;25.50;72.60;;;;;;10073512;28;20456;-50
2021/09/10 11:55:14;;;;;;;6.18;5.25;;;25.50;73.00;;;;;;10080257;28;20028;-53
2021/09/10 12:00:07;;;;;;;7.70;5.65;;;25.60;72.60;;;;;;10088933;28;20119;-57
2021/09/10 12:05:00;;;;;;;5.82;4.47;;;25.20;72.90;;;;;;10080712;28;20447;-53
2021/09/10 12:09:54;;;;;;;5.97;5.15;;;25.20;72.70;;;;;;10076178;28;20033;-52
2021/09/10 12:14:54;;;;;;;8.13;4.07;;;25.20;72.60;;;;;;10074021;28;20033;-51
2021/09/10 12:19:51;;;;;;;6.28;5.13;;;25.20;72.40;;;;;;10076914;28;20571;-51
2021/09/10 12:24:41;;;;;;;7.82;5.30;;;25.20;72.50;;;;;;10077594;28;20061;-56
2021/09/10 12:29:32;;;;;;;5.63;4.40;;;25.50;72.00;;;;;;10073780;28;20087;-54
2021/09/10 12:34:23;;;;;;;4.90;4.03;;;25.50;71.70;;;;;;10073035;28;20022;-55
2021/09/10 12:39:15;;;;;;;6.97;3.95;;;25.50;71.90;;;;;;10077515;28;20041;-53
2021/09/10 12:44:09;;;;;;;5.85;4.07;;;25.30;72.10;;;;;;10071040;28;20399;-56
2021/09/10 12:48:59;;;;;;;5.50;3.83;;;25.30;72.30;;;;;;10074949;28;20037;-55
2021/09/10 12:53:50;;;;;;;5.10;3.60;;;25.50;72.10;;;;;;10080454;28;20025;-54
2021/09/10 12:58:41;;;;;;;5.50;4.65;;;25.50;72.30;;;;;;10069237;28;20069;-49
2021/09/10 13:03:31;;;;;;;7.20;5.00;;;25.30;72.80;;;;;;10088835;28;20387;-56
2021/09/10 13:08:22;;;;;;;6.53;5.05;;;25.50;72.60;;;;;;10099249;28;20033;-50
2021/09/10 13:13:13;;;;;;;6.57;4.35;;;25.70;72.40;;;;;;10094483;28;21742;-51
2021/09/10 13:18:03;;;;;;;6.38;4.25;;;25.70;72.60;;;;;;10083186;28;20060;-48
2021/09/10 13:22:54;;;;;;;6.45;5.03;;;25.90;72.50;;;;;;10082681;28;20603;-51
2021/09/10 13:27:45;;;;;;;12.68;5.63;;;26.40;72.10;;;;;;10063595;28;20021;-51
2021/09/10 13:32:36;;;;;;;4.97;4.20;;;26.50;72.10;;;;;;10070845;28;20036;-51
2021/09/10 13:37:26;;;;;;;5.32;4.55;;;26.40;72.50;;;;;;10075570;28;20036;-47
2021/09/10 13:42:19;;;;;;;6.88;4.80;;;27.30;71.40;;;;;;10068815;28;20083;-49
2021/09/10 13:47:10;;;;;;;5.45;4.10;;;28.10;70.40;;;;;;10072901;28;20766;-49
2021/09/10 13:52:00;;;;;;;5.25;4.50;;;28.40;69.20;;;;;;10071174;28;20285;-56
2021/09/10 13:56:51;;;;;;;4.60;3.70;;;27.40;70.50;;;;;;10069996;28;20044;-52
2021/09/10 14:01:42;;;;;;;6.55;4.22;;;26.80;71.20;;;;;;10070648;28;20118;-53
2021/09/10 14:06:33;;;;;;;4.30;3.90;;;26.30;71.50;;;;;;10072443;28;20066;-52
2021/09/10 14:11:24;;;;;;;5.60;4.30;;;25.90;71.80;;;;;;10070141;28;20081;-53
2021/09/10 14:16:16;;;;;;;5.63;3.90;;;25.60;71.90;;;;;;10076215;28;20541;-53
2021/09/10 14:21:08;;;;;;;5.30;4.38;;;25.60;71.50;;;;;;10074275;28;20131;-53
2021/09/10 14:25:58;;;;;;;5.70;4.30;;;25.80;71.30;;;;;;10070598;28;20036;-53
2021/09/10 14:30:49;;;;;;;7.18;5.15;;;25.90;71.30;;;;;;10070330;28;20451;-54
2021/09/10 14:35:40;;;;;;;5.57;3.90;;;26.20;71.10;;;;;;10072994;28;20674;-54
2021/09/10 14:40:31;;;;;;;5.45;4.63;;;26.30;71.00;;;;;;10070447;28;20041;-52
2021/09/10 14:45:22;;;;;;;6.00;4.65;;;26.10;71.30;;;;;;10076596;28;20079;-54
2021/09/10 14:50:13;;;;;;;4.97;3.97;;;26.00;71.30;;;;;;10076060;28;20021;-51
2021/09/10 14:55:04;;;;;;;7.18;4.28;;;25.50;72.00;;;;;;10070923;28;20032;-55
2021/09/10 15:00:07;;;;;;;7.25;4.53;;;25.30;72.40;;;;;;10072385;28;20441;-54
2021/09/10 15:04:58;;;;;;;6.05;4.40;;;25.10;72.10;;;;;;10068468;28;20029;-57
2021/09/10 15:09:49;;;;;;;6.88;4.70;;;24.90;72.60;;;;;;10073689;28;20028;-54
2021/09/10 15:14:40;;;;;;;6.45;4.97;;;24.70;73.00;;;;;;10065088;28;20024;-54
2021/09/10 15:19:30;;;;;;;8.88;6.30;;;24.70;72.70;;;;;;10075936;28;20574;-54
2021/09/10 15:24:21;;;;;;;6.28;3.72;;;24.70;72.80;;;;;;10071826;28;20041;-55
2021/09/10 15:29:12;;;;;;;5.82;5.03;;;24.60;73.10;;;;;;10073447;28;20075;-53
2021/09/10 15:34:03;;;;;;;6.47;4.55;;;24.40;73.40;;;;;;10067110;28;20106;-55
2021/09/10 15:38:53;;;;;;;5.82;4.72;;;24.40;73.50;;;;;;10047168;28;20050;-49
2021/09/10 15:43:44;;;;;;;5.18;4.43;;;24.50;73.40;;;;;;10081643;28;20047;-52
2021/09/10 15:48:35;;;;;;;7.88;4.75;;;24.50;73.20;;;;;;10044630;28;20309;-55
2021/09/10 15:53:26;;;;;;;7.32;4.30;;;24.50;73.30;;;;;;10075440;28;20037;-52
2021/09/10 15:58:17;;;;;;;6.18;4.95;;;24.40;73.40;;;;;;10081966;28;20029;-57
2021/09/10 16:03:08;;;;;;;7.28;3.90;;;24.40;73.20;;;;;;10077889;28;20036;-54
2021/09/10 16:07:58;;;;;;;7.15;4.80;;;24.20;73.60;;;;;;10067678;28;20106;-56
2021/09/10 16:12:50;;;;;;;7.05;4.63;;;24.20;73.50;;;;;;10074054;28;20084;-58
2021/09/10 16:17:40;;;;;;;7.65;4.88;;;24.30;73.50;;;;;;10073613;28;20605;-59
2021/09/10 16:22:31;;;;;;;7.07;4.60;;;24.30;73.20;;;;;;10085267;28;20039;-56
2021/09/10 16:27:22;;;;;;;6.90;5.13;;;24.40;73.30;;;;;;10080693;28;20083;-59
2021/09/10 16:32:12;;;;;;;7.20;5.32;;;24.60;72.80;;;;;;10082046;28;20078;-56
2021/09/10 16:37:03;;;;;;;5.95;5.22;;;24.50;73.20;;;;;;10085473;28;20029;-57
2021/09/10 16:41:54;;;;;;;8.10;5.93;;;24.30;74.00;;;;;;10083497;28;20059;-59
2021/09/10 16:46:44;;;;;;;9.25;5.03;;;24.20;74.20;;;;;;10081090;28;20028;-57
2021/09/10 16:51:36;;;;;;;7.57;5.43;;;24.10;74.30;;;;;;10079110;28;20052;-55
2021/09/10 16:56:26;;;;;;;7.63;5.00;;;24.10;74.20;;;;;;10055412;28;20240;-56
2021/09/10 17:01:17;;;;;;;6.63;4.88;;;24.00;74.10;;;;;;10078084;28;20166;-56
2021/09/10 17:06:08;;;;;;;5.72;4.55;;;23.80;73.90;;;;;;10079617;28;20556;-56
2021/09/10 17:10:58;;;;;;;5.15;4.63;;;23.70;74.10;;;;;;10079572;28;20024;-54
2021/09/10 17:15:49;;;;;;;7.60;5.47;;;23.60;73.70;;;;;;10083639;28;20033;-54
2021/09/10 17:20:40;;;;;;;6.53;5.43;;;23.50;73.60;;;;;;10077407;28;20122;-55
2021/09/10 17:25:31;;;;;;;6.18;4.85;;;23.60;73.30;;;;;;10076401;28;20492;-55
2021/09/10 17:30:21;;;;;;;6.97;4.97;;;23.50;73.30;;;;;;10077333;28;20283;-55
2021/09/10 17:35:13;;;;;;;6.68;4.78;;;23.50;73.10;;;;;;10078229;28;20044;-56
2021/09/10 17:40:04;;;;;;;9.27;5.47;;;23.50;72.90;;;;;;10073791;28;20037;-54
2021/09/10 17:44:55;;;;;;;6.05;4.43;;;23.30;73.20;;;;;;10084070;28;20048;-55
2021/09/10 17:49:46;;;;;;;10.13;5.18;;;23.20;73.30;;;;;;10062384;28;20040;-55
2021/09/10 17:54:36;;;;;;;5.63;4.82;;;23.20;73.10;;;;;;10075315;28;20024;-52
2021/09/10 17:59:27;;;;;;;6.22;4.82;;;23.20;73.00;;;;;;10075346;28;20634;-53
2021/09/10 18:04:18;;;;;;;6.07;5.00;;;23.10;73.00;;;;;;10072357;28;20041;-57
2021/09/10 18:09:08;;;;;;;6.43;4.90;;;23.00;73.10;;;;;;10064906;28;20037;-55
2021/09/10 18:13:59;;;;;;;5.60;4.38;;;22.90;73.20;;;;;;10070805;28;20026;-49
2021/09/10 18:18:53;;;;;;;8.38;4.78;;;22.90;73.30;;;;;;10054846;28;20044;-50
2021/09/10 18:23:45;;;;;;;8.25;5.68;;;23.00;73.20;;;;;;10069533;28;20055;-57
2021/09/10 18:28:36;;;;;;;8.68;5.03;;;23.00;73.00;;;;;;10072919;28;20657;-52
2021/09/10 18:33:27;;;;;;;8.40;5.40;;;23.00;73.00;;;;;;10070441;28;20033;-55
2021/09/10 18:38:17;;;;;;;6.78;4.80;;;22.90;73.20;;;;;;10075613;28;20036;-54
2021/09/10 18:43:08;;;;;;;7.75;4.85;;;22.80;73.50;;;;;;10067335;28;20037;-54
2021/09/10 18:47:59;;;;;;;6.93;4.55;;;22.80;73.90;;;;;;10076417;28;20214;-53
2021/09/10 18:52:49;;;;;;;6.65;5.03;;;22.80;73.80;;;;;;10074375;28;20018;-54
2021/09/10 18:57:41;;;;;;;11.40;5.47;;;22.70;73.80;;;;;;10073545;28;20169;-49
2021/09/10 19:02:33;;;;;;;6.13;5.03;;;22.80;74.00;;;;;;10064686;28;20496;-50
2021/09/10 19:07:23;;;;;;;9.50;5.53;;;22.70;74.10;;;;;;10069770;28;20025;-55
2021/09/10 19:12:14;;;;;;;9.70;5.72;;;22.60;74.60;;;;;;10073500;28;20499;-52
2021/09/10 19:17:05;;;;;;;9.60;6.53;;;22.50;74.60;;;;;;10083888;28;20116;-50
2021/09/10 19:21:55;;;;;;;9.60;6.65;;;22.40;75.00;;;;;;10080433;28;20047;-51
2021/09/10 19:26:46;;;;;;;9.75;6.07;;;22.40;75.20;;;;;;10067256;28;20045;-48
2021/09/10 19:31:38;;;;;;;8.52;5.88;;;22.40;75.20;;;;;;10083575;28;20054;-52
2021/09/10 19:36:29;;;;;;;9.10;6.20;;;22.30;75.30;;;;;;10078314;28;20056;-53
2021/09/10 19:41:19;;;;;;;7.82;5.65;;;22.30;75.70;;;;;;10083474;28;20052;-53
2021/09/10 19:46:10;;;;;;;9.57;5.47;;;22.20;76.00;;;;;;10084923;28;20035;-55
2021/09/10 19:51:01;;;;;;;9.15;6.60;;;22.10;76.30;;;;;;10084512;28;20071;-48
2021/09/10 19:55:52;;;;;;;23.65;12.77;;;22.30;76.30;;;;;;10055563;28;20029;-48
2021/09/10 20:00:42;;;;;;;10.20;5.85;;;22.30;76.10;;;;;;10077846;28;20542;-48
2021/09/10 20:05:33;;;;;;;10.50;6.28;;;22.40;76.10;;;;;;10080210;28;20106;-50
2021/09/10 20:10:24;;;;;;;13.18;7.65;;;22.40;76.40;;;;;;10064502;28;20041;-48
2021/09/10 20:15:15;;;;;;;10.77;5.45;;;22.40;76.60;;;;;;10071205;28;20044;-50
2021/09/10 20:20:06;;;;;;;7.00;5.50;;;22.30;76.90;;;;;;10068121;28;20052;-49
2021/09/10 20:24:57;;;;;;;8.48;5.45;;;22.20;77.10;;;;;;10081447;28;20055;-51
2021/09/10 20:29:48;;;;;;;9.70;5.90;;;22.20;77.30;;;;;;10078577;28;20031;-47
2021/09/10 20:34:39;;;;;;;7.05;5.40;;;22.20;77.30;;;;;;10086954;28;20494;-50
2021/09/10 20:39:29;;;;;;;7.78;5.13;;;22.20;77.40;;;;;;10070692;28;20106;-49
2021/09/10 20:44:20;;;;;;;10.40;5.75;;;22.20;77.30;;;;;;10071835;28;20049;-48
2021/09/10 20:49:11;;;;;;;9.63;6.60;;;22.20;77.30;;;;;;10074176;28;20434;-50
2021/09/10 20:54:01;;;;;;;8.07;5.78;;;22.20;77.70;;;;;;10086124;28;20017;-49
2021/09/10 20:58:52;;;;;;;7.32;5.57;;;22.20;77.40;;;;;;10080935;28;20033;-54
2021/09/10 21:03:42;;;;;;;8.63;4.97;;;22.20;77.50;;;;;;10081323;28;20441;-51
2021/09/10 21:08:33;;;;;;;4.82;4.03;;;22.30;77.90;;;;;;10088621;28;20044;-50
2021/09/10 21:13:24;;;;;;;6.70;4.35;;;22.20;77.20;;;;;;10079075;28;20025;-51
2021/09/10 21:18:15;;;;;;;5.43;4.03;;;22.20;77.20;;;;;;10078364;28;20034;-58
2021/09/10 21:23:06;;;;;;;6.65;4.82;;;22.20;77.30;;;;;;10078259;28;20021;-55
2021/09/10 21:27:56;;;;;;;6.15;4.18;;;22.10;77.50;;;;;;10080093;28;20036;-60
2021/09/10 21:32:47;;;;;;;5.00;3.80;;;22.00;78.00;;;;;;10079463;28;20030;-52
2021/09/10 21:37:38;;;;;;;6.47;4.93;;;22.00;77.50;;;;;;10083900;28;20036;-51
2021/09/10 21:42:29;;;;;;;4.00;3.38;;;21.80;77.40;;;;;;10079000;28;20037;-62
2021/09/10 21:47:20;;;;;;;5.63;3.30;;;21.80;77.60;;;;;;10064949;28;20037;-54
2021/09/10 21:52:10;;;;;;;4.53;3.05;;;21.70;77.50;;;;;;10079205;28;20080;-56
2021/09/10 21:57:01;;;;;;;4.45;3.28;;;21.70;77.40;;;;;;10062750;28;20199;-53
2021/09/10 22:01:51;;;;;;;4.50;3.67;;;21.60;77.20;;;;;;10082172;28;20049;-54
2021/09/10 22:06:42;;;;;;;4.47;3.38;;;21.70;77.10;;;;;;10076757;28;20086;-55
2021/09/10 22:11:33;;;;;;;4.22;2.97;;;21.70;77.00;;;;;;10078790;28;20052;-49
2021/09/10 22:16:24;;;;;;;4.38;3.05;;;21.60;77.00;;;;;;10088837;28;20064;-56
2021/09/10 22:21:14;;;;;;;3.75;2.75;;;21.60;77.00;;;;;;10079280;28;20202;-57
2021/09/10 22:26:05;;;;;;;4.32;3.38;;;21.50;77.30;;;;;;10078674;28;20029;-55
2021/09/10 22:30:56;;;;;;;4.75;3.03;;;21.50;77.50;;;;;;10074369;28;20689;-47
2021/09/10 22:35:47;;;;;;;3.58;2.72;;;21.40;77.70;;;;;;10083977;28;20041;-51
2021/09/10 22:40:37;;;;;;;4.82;2.83;;;21.30;78.00;;;;;;10060302;28;20541;-49
2021/09/10 22:45:28;;;;;;;5.30;2.63;;;21.10;78.40;;;;;;10060236;28;20056;-49
2021/09/10 22:50:19;;;;;;;3.63;2.95;;;21.10;78.70;;;;;;10066835;28;20065;-52
2021/09/10 22:55:10;;;;;;;3.13;2.38;;;21.00;78.70;;;;;;10076947;28;20017;-49
2021/09/10 23:00:02;;;;;;;2.88;2.50;;;21.00;79.80;;;;;;10071200;28;20047;-60
2021/09/10 23:04:53;;;;;;;4.85;3.10;;;21.00;79.00;;;;;;10053253;28;20021;-48
2021/09/10 23:09:43;;;;;;;3.53;2.53;;;21.00;79.60;;;;;;10071599;28;20514;-51
2021/09/10 23:14:34;;;;;;;3.63;2.15;;;20.80;80.20;;;;;;10073496;28;20455;-52
2021/09/10 23:19:25;;;;;;;2.25;1.73;;;20.80;80.60;;;;;;10071316;28;20584;-50
2021/09/10 23:24:16;;;;;;;3.17;2.17;;;20.80;80.60;;;;;;10071029;28;20051;-56
2021/09/10 23:29:06;;;;;;;2.40;2.00;;;20.70;80.90;;;;;;10074377;28;20039;-53
2021/09/10 23:33:57;;;;;;;3.47;2.05;;;20.70;81.50;;;;;;10078232;28;20028;-52
2021/09/10 23:38:48;;;;;;;3.05;2.17;;;20.70;81.40;;;;;;10071693;28;20578;-50
2021/09/10 23:43:39;;;;;;;25.60;11.88;;;20.80;81.50;;;;;;10055011;28;20049;-49
2021/09/10 23:48:29;;;;;;;5.95;3.45;;;20.70;81.90;;;;;;10070232;28;20029;-57
2021/09/10 23:53:20;;;;;;;6.00;3.53;;;20.80;81.80;;;;;;10067246;28;20082;-62
2021/09/10 23:58:11;;;;;;;4.15;3.00;;;20.60;82.50;;;;;;10068089;28;20053;-58
